sensor_id;sensor_type;location;lat;lon;timestamp;temperature;humidity
18948;DHT22;9607;51.600;7.558;2022-10-01T00:00:56;12.50;99.90
18948;DHT22;9607;51.600;7.558;2022-10-01T00:03:24;12.50;99.90
18948;DHT22;9607;51.600;7.558;2022-10-01T00:05:58;12.50;99.90
18948;DHT22;9607;51.600;7.558;2022-10-01T00:08:26;12.50;99.90
18948;DHT22;9607;51.600;7.558;2022-10-01T00:10:53;12.50;99.90
18948;DHT22;9607;51.600;7.558;2022-10-01T00:13:22;12.50;99.90
18948;DHT22;9607;51.600;7.558;2022-10-01T00:15:48;12.50;99.90
18948;DHT22;9607;51.600;7.558;2022-10-01T00:18:15;12.60;99.90
18948;DHT22;9607;51.600;7.558;2022-10-01T00:20:42;12.60;99.90
18948;DHT22;9607;51.600;7.558;2022-10-01T00:23:10;12.60;99.90
18948;DHT22;9607;51.600;7.558;2022-10-01T00:25:37;12.60;99.90
18948;DHT22;9607;51.600;7.558;2022-10-01T00:28:04;12.60;99.90
18948;DHT22;9607;51.600;7.558;2022-10-01T00:30:33;12.70;99.90
18948;DHT22;9607;51.600;7.558;2022-10-01T00:33:00;12.70;99.90
18948;DHT22;9607;51.600;7.558;2022-10-01T00:35:26;12.70;99.90
18948;DHT22;9607;51.600;7.558;2022-10-01T00:37:53;12.80;99.90
18948;DHT22;9607;51.600;7.558;2022-10-01T00:40:21;12.80;99.90
18948;DHT22;9607;51.600;7.558;2022-10-01T00:42:48;12.80;99.90
18948;DHT22;9607;51.600;7.558;2022-10-01T00:45:15;12.80;99.90
18948;DHT22;9607;51.600;7.558;2022-10-01T00:47:46;12.90;99.90
18948;DHT22;9607;51.600;7.558;2022-10-01T00:50:19;12.90;99.90
18948;DHT22;9607;51.600;7.558;2022-10-01T00:52:51;12.90;99.90
18948;DHT22;9607;51.600;7.558;2022-10-01T00:55:22;12.90;99.90
18948;DHT22;9607;51.600;7.558;2022-10-01T00:57:51;12.90;99.90
18948;DHT22;9607;51.600;7.558;2022-10-01T01:00:19;13.00;99.90
18948;DHT22;9607;51.600;7.558;2022-10-01T01:02:48;13.00;99.90
18948;DHT22;9607;51.600;7.558;2022-10-01T01:05:15;13.00;99.90
18948;DHT22;9607;51.600;7.558;2022-10-01T01:07:45;13.10;99.90
18948;DHT22;9607;51.600;7.558;2022-10-01T01:10:13;13.00;99.90
18948;DHT22;9607;51.600;7.558;2022-10-01T01:12:50;13.10;99.90
18948;DHT22;9607;51.600;7.558;2022-10-01T01:15:26;13.10;99.90
18948;DHT22;9607;51.600;7.558;2022-10-01T01:18:01;13.10;99.90
18948;DHT22;9607;51.600;7.558;2022-10-01T01:20:48;13.10;99.90
18948;DHT22;9607;51.600;7.558;2022-10-01T01:26:35;13.00;99.90
18948;DHT22;9607;51.600;7.558;2022-10-01T01:29:11;12.90;99.90
18948;DHT22;9607;51.600;7.558;2022-10-01T01:31:44;12.80;99.90
18948;DHT22;9607;51.600;7.558;2022-10-01T01:34:15;12.70;99.90
18948;DHT22;9607;51.600;7.558;2022-10-01T01:36:47;12.60;99.90
18948;DHT22;9607;51.600;7.558;2022-10-01T01:39:16;12.50;99.90
18948;DHT22;9607;51.600;7.558;2022-10-01T01:41:47;12.40;99.90
18948;DHT22;9607;51.600;7.558;2022-10-01T01:44:19;12.30;99.90
18948;DHT22;9607;51.600;7.558;2022-10-01T01:46:49;12.10;99.90
18948;DHT22;9607;51.600;7.558;2022-10-01T01:49:22;12.10;99.90
18948;DHT22;9607;51.600;7.558;2022-10-01T01:51:55;12.00;99.90
18948;DHT22;9607;51.600;7.558;2022-10-01T01:54:24;11.90;99.90
18948;DHT22;9607;51.600;7.558;2022-10-01T01:56:55;11.80;99.90
18948;DHT22;9607;51.600;7.558;2022-10-01T01:59:24;11.70;99.90
18948;DHT22;9607;51.600;7.558;2022-10-01T02:01:52;11.70;99.90
18948;DHT22;9607;51.600;7.558;2022-10-01T02:04:22;11.60;99.90
18948;DHT22;9607;51.600;7.558;2022-10-01T02:07:03;11.60;99.90
18948;DHT22;9607;51.600;7.558;2022-10-01T02:09:35;11.60;99.90
18948;DHT22;9607;51.600;7.558;2022-10-01T02:12:10;11.60;99.90
18948;DHT22;9607;51.600;7.558;2022-10-01T02:14:46;11.60;99.90
18948;DHT22;9607;51.600;7.558;2022-10-01T02:17:23;11.50;99.90
18948;DHT22;9607;51.600;7.558;2022-10-01T02:19:56;11.50;99.90
18948;DHT22;9607;51.600;7.558;2022-10-01T02:22:29;11.50;99.90
18948;DHT22;9607;51.600;7.558;2022-10-01T02:25:02;11.50;99.90
18948;DHT22;9607;51.600;7.558;2022-10-01T02:27:33;11.50;99.90
18948;DHT22;9607;51.600;7.558;2022-10-01T02:30:05;11.50;99.90
18948;DHT22;9607;51.600;7.558;2022-10-01T02:32:33;11.50;99.90
18948;DHT22;9607;51.600;7.558;2022-10-01T02:35:03;11.40;99.90
18948;DHT22;9607;51.600;7.558;2022-10-01T02:37:32;11.40;99.90
18948;DHT22;9607;51.600;7.558;2022-10-01T02:40:01;11.40;99.90
18948;DHT22;9607;51.600;7.558;2022-10-01T02:42:30;11.40;99.90
18948;DHT22;9607;51.600;7.558;2022-10-01T02:44:58;11.40;99.90
18948;DHT22;9607;51.600;7.558;2022-10-01T02:47:32;11.40;99.90
18948;DHT22;9607;51.600;7.558;2022-10-01T02:50:00;11.40;99.90
18948;DHT22;9607;51.600;7.558;2022-10-01T02:52:33;11.30;99.90
18948;DHT22;9607;51.600;7.558;2022-10-01T02:55:06;11.30;99.90
18948;DHT22;9607;51.600;7.558;2022-10-01T02:57:35;11.30;99.90
18948;DHT22;9607;51.600;7.558;2022-10-01T03:00:03;11.30;99.90
18948;DHT22;9607;51.600;7.558;2022-10-01T03:02:32;11.30;99.90
18948;DHT22;9607;51.600;7.558;2022-10-01T03:04:59;11.20;99.90
18948;DHT22;9607;51.600;7.558;2022-10-01T03:07:27;11.20;99.90
18948;DHT22;9607;51.600;7.558;2022-10-01T03:09:55;11.20;99.90
18948;DHT22;9607;51.600;7.558;2022-10-01T03:12:22;11.20;99.90
18948;DHT22;9607;51.600;7.558;2022-10-01T03:14:49;11.20;99.90
18948;DHT22;9607;51.600;7.558;2022-10-01T03:17:16;11.20;99.90
18948;DHT22;9607;51.600;7.558;2022-10-01T03:19:45;11.10;99.90
18948;DHT22;9607;51.600;7.558;2022-10-01T03:22:15;11.10;99.90
18948;DHT22;9607;51.600;7.558;2022-10-01T03:24:44;11.10;99.90
18948;DHT22;9607;51.600;7.558;2022-10-01T03:27:10;11.10;99.90
18948;DHT22;9607;51.600;7.558;2022-10-01T03:29:38;11.10;99.90
18948;DHT22;9607;51.600;7.558;2022-10-01T03:32:05;11.10;99.90
18948;DHT22;9607;51.600;7.558;2022-10-01T03:34:32;11.10;99.90
18948;DHT22;9607;51.600;7.558;2022-10-01T03:37:00;11.10;99.90
18948;DHT22;9607;51.600;7.558;2022-10-01T03:39:27;11.00;99.90
18948;DHT22;9607;51.600;7.558;2022-10-01T03:41:54;11.00;99.90
18948;DHT22;9607;51.600;7.558;2022-10-01T03:44:21;11.00;99.90
18948;DHT22;9607;51.600;7.558;2022-10-01T03:46:48;11.00;99.90
18948;DHT22;9607;51.600;7.558;2022-10-01T03:49:15;11.00;99.90
18948;DHT22;9607;51.600;7.558;2022-10-01T03:51:42;11.00;99.90
18948;DHT22;9607;51.600;7.558;2022-10-01T03:54:11;11.00;99.90
18948;DHT22;9607;51.600;7.558;2022-10-01T03:56:38;11.00;99.90
18948;DHT22;9607;51.600;7.558;2022-10-01T03:59:07;11.00;99.90
18948;DHT22;9607;51.600;7.558;2022-10-01T04:01:34;10.90;99.90
18948;DHT22;9607;51.600;7.558;2022-10-01T04:04:01;10.90;99.90
18948;DHT22;9607;51.600;7.558;2022-10-01T04:06:28;10.90;99.90
18948;DHT22;9607;51.600;7.558;2022-10-01T04:08:55;10.90;99.90
18948;DHT22;9607;51.600;7.558;2022-10-01T04:11:23;10.90;99.90
18948;DHT22;9607;51.600;7.558;2022-10-01T04:13:50;11.00;99.90
18948;DHT22;9607;51.600;7.558;2022-10-01T04:16:17;10.90;99.90
18948;DHT22;9607;51.600;7.558;2022-10-01T04:18:44;10.90;99.90
18948;DHT22;9607;51.600;7.558;2022-10-01T04:21:10;10.90;99.90
18948;DHT22;9607;51.600;7.558;2022-10-01T04:23:39;10.90;99.90
18948;DHT22;9607;51.600;7.558;2022-10-01T04:26:06;10.90;99.90
18948;DHT22;9607;51.600;7.558;2022-10-01T04:28:35;10.90;99.90
18948;DHT22;9607;51.600;7.558;2022-10-01T04:31:01;10.90;99.90
18948;DHT22;9607;51.600;7.558;2022-10-01T04:33:46;10.90;99.90
18948;DHT22;9607;51.600;7.558;2022-10-01T04:36:12;10.90;99.90
18948;DHT22;9607;51.600;7.558;2022-10-01T04:38:39;10.90;99.90
18948;DHT22;9607;51.600;7.558;2022-10-01T04:41:06;11.00;99.90
18948;DHT22;9607;51.600;7.558;2022-10-01T04:43:35;10.90;99.90
18948;DHT22;9607;51.600;7.558;2022-10-01T04:46:02;10.90;99.90
18948;DHT22;9607;51.600;7.558;2022-10-01T04:48:28;11.00;99.90
18948;DHT22;9607;51.600;7.558;2022-10-01T04:50:55;11.00;99.90
18948;DHT22;9607;51.600;7.558;2022-10-01T04:53:22;11.00;99.90
18948;DHT22;9607;51.600;7.558;2022-10-01T04:55:49;11.00;99.90
18948;DHT22;9607;51.600;7.558;2022-10-01T04:58:16;11.00;99.90
18948;DHT22;9607;51.600;7.558;2022-10-01T05:00:44;11.00;99.90
18948;DHT22;9607;51.600;7.558;2022-10-01T05:03:11;11.00;99.90
18948;DHT22;9607;51.600;7.558;2022-10-01T05:05:38;11.10;99.90
18948;DHT22;9607;51.600;7.558;2022-10-01T05:08:05;11.10;99.90
18948;DHT22;9607;51.600;7.558;2022-10-01T05:10:32;11.10;99.90
18948;DHT22;9607;51.600;7.558;2022-10-01T05:12:59;11.10;99.90
18948;DHT22;9607;51.600;7.558;2022-10-01T05:15:27;11.20;99.90
18948;DHT22;9607;51.600;7.558;2022-10-01T05:17:56;11.20;99.90
18948;DHT22;9607;51.600;7.558;2022-10-01T05:20:24;11.20;99.90
18948;DHT22;9607;51.600;7.558;2022-10-01T05:22:52;11.20;99.90
18948;DHT22;9607;51.600;7.558;2022-10-01T05:25:19;11.20;99.90
18948;DHT22;9607;51.600;7.558;2022-10-01T05:27:46;11.20;99.90
18948;DHT22;9607;51.600;7.558;2022-10-01T05:30:14;11.30;99.90
18948;DHT22;9607;51.600;7.558;2022-10-01T05:32:53;11.30;99.90
18948;DHT22;9607;51.600;7.558;2022-10-01T05:35:21;11.30;99.90
18948;DHT22;9607;51.600;7.558;2022-10-01T05:37:52;11.30;99.90
18948;DHT22;9607;51.600;7.558;2022-10-01T05:40:18;11.30;99.90
18948;DHT22;9607;51.600;7.558;2022-10-01T05:42:45;11.30;99.90
18948;DHT22;9607;51.600;7.558;2022-10-01T05:45:12;11.30;99.90
18948;DHT22;9607;51.600;7.558;2022-10-01T05:47:39;11.30;99.90
18948;DHT22;9607;51.600;7.558;2022-10-01T05:50:07;11.30;99.90
18948;DHT22;9607;51.600;7.558;2022-10-01T05:52:36;11.30;99.90
18948;DHT22;9607;51.600;7.558;2022-10-01T05:55:03;11.40;99.90
18948;DHT22;9607;51.600;7.558;2022-10-01T05:57:30;11.40;99.90
18948;DHT22;9607;51.600;7.558;2022-10-01T05:59:57;11.40;99.90
18948;DHT22;9607;51.600;7.558;2022-10-01T06:02:24;11.40;99.90
18948;DHT22;9607;51.600;7.558;2022-10-01T06:04:51;11.40;99.90
18948;DHT22;9607;51.600;7.558;2022-10-01T06:07:18;11.40;99.90
18948;DHT22;9607;51.600;7.558;2022-10-01T06:09:46;11.40;99.90
18948;DHT22;9607;51.600;7.558;2022-10-01T06:12:13;11.50;99.90
18948;DHT22;9607;51.600;7.558;2022-10-01T06:14:41;11.50;99.90
18948;DHT22;9607;51.600;7.558;2022-10-01T06:17:08;11.40;99.90
18948;DHT22;9607;51.600;7.558;2022-10-01T06:19:35;11.50;99.90
18948;DHT22;9607;51.600;7.558;2022-10-01T06:22:02;11.40;99.90
18948;DHT22;9607;51.600;7.558;2022-10-01T06:24:28;11.50;99.90
18948;DHT22;9607;51.600;7.558;2022-10-01T06:26:57;11.50;99.90
18948;DHT22;9607;51.600;7.558;2022-10-01T06:29:24;11.50;99.90
18948;DHT22;9607;51.600;7.558;2022-10-01T06:31:51;11.50;99.90
18948;DHT22;9607;51.600;7.558;2022-10-01T06:34:17;11.50;99.90
18948;DHT22;9607;51.600;7.558;2022-10-01T06:36:44;11.60;99.90
18948;DHT22;9607;51.600;7.558;2022-10-01T06:39:11;11.60;99.90
18948;DHT22;9607;51.600;7.558;2022-10-01T06:41:38;11.60;99.90
18948;DHT22;9607;51.600;7.558;2022-10-01T06:44:09;11.60;99.90
18948;DHT22;9607;51.600;7.558;2022-10-01T06:46:36;11.60;99.90
18948;DHT22;9607;51.600;7.558;2022-10-01T06:49:03;11.70;99.90
18948;DHT22;9607;51.600;7.558;2022-10-01T06:51:29;11.70;99.90
18948;DHT22;9607;51.600;7.558;2022-10-01T06:54:14;11.70;99.90
18948;DHT22;9607;51.600;7.558;2022-10-01T06:56:42;11.70;99.90
18948;DHT22;9607;51.600;7.558;2022-10-01T06:59:11;11.80;99.90
18948;DHT22;9607;51.600;7.558;2022-10-01T07:01:37;11.80;99.90
18948;DHT22;9607;51.600;7.558;2022-10-01T07:04:04;11.80;99.90
18948;DHT22;9607;51.600;7.558;2022-10-01T07:06:31;11.90;99.90
18948;DHT22;9607;51.600;7.558;2022-10-01T07:08:58;11.90;99.90
18948;DHT22;9607;51.600;7.558;2022-10-01T07:11:25;11.90;99.90
18948;DHT22;9607;51.600;7.558;2022-10-01T07:13:52;11.90;99.90
18948;DHT22;9607;51.600;7.558;2022-10-01T07:16:20;11.90;99.90
18948;DHT22;9607;51.600;7.558;2022-10-01T07:18:47;11.90;99.90
18948;DHT22;9607;51.600;7.558;2022-10-01T07:21:14;12.00;99.90
18948;DHT22;9607;51.600;7.558;2022-10-01T07:23:41;12.10;99.90
18948;DHT22;9607;51.600;7.558;2022-10-01T07:26:09;12.10;99.90
18948;DHT22;9607;51.600;7.558;2022-10-01T07:28:36;12.10;99.90
18948;DHT22;9607;51.600;7.558;2022-10-01T07:31:04;12.10;99.90
18948;DHT22;9607;51.600;7.558;2022-10-01T07:33:35;12.10;99.90
18948;DHT22;9607;51.600;7.558;2022-10-01T07:36:04;12.20;99.90
18948;DHT22;9607;51.600;7.558;2022-10-01T07:38:32;12.20;99.90
18948;DHT22;9607;51.600;7.558;2022-10-01T07:40:59;12.20;99.90
18948;DHT22;9607;51.600;7.558;2022-10-01T07:43:27;12.30;99.90
18948;DHT22;9607;51.600;7.558;2022-10-01T07:45:54;12.30;99.90
18948;DHT22;9607;51.600;7.558;2022-10-01T07:48:22;12.30;99.90
18948;DHT22;9607;51.600;7.558;2022-10-01T07:50:51;12.40;99.90
18948;DHT22;9607;51.600;7.558;2022-10-01T07:53:18;12.40;99.90
18948;DHT22;9607;51.600;7.558;2022-10-01T07:55:45;12.50;99.90
18948;DHT22;9607;51.600;7.558;2022-10-01T07:58:12;12.50;99.90
18948;DHT22;9607;51.600;7.558;2022-10-01T08:00:39;12.40;99.90
18948;DHT22;9607;51.600;7.558;2022-10-01T08:03:07;12.40;99.90
18948;DHT22;9607;51.600;7.558;2022-10-01T08:05:36;12.40;99.90
18948;DHT22;9607;51.600;7.558;2022-10-01T08:08:08;12.40;99.90
18948;DHT22;9607;51.600;7.558;2022-10-01T08:10:37;12.50;99.90
18948;DHT22;9607;51.600;7.558;2022-10-01T08:13:05;12.40;99.90
18948;DHT22;9607;51.600;7.558;2022-10-01T08:15:33;12.50;99.90
18948;DHT22;9607;51.600;7.558;2022-10-01T08:18:00;12.50;99.90
18948;DHT22;9607;51.600;7.558;2022-10-01T08:20:27;12.60;99.90
18948;DHT22;9607;51.600;7.558;2022-10-01T08:23:00;12.70;99.90
18948;DHT22;9607;51.600;7.558;2022-10-01T08:25:28;12.70;99.90
18948;DHT22;9607;51.600;7.558;2022-10-01T08:27:55;12.80;99.90
18948;DHT22;9607;51.600;7.558;2022-10-01T08:30:22;12.90;99.90
18948;DHT22;9607;51.600;7.558;2022-10-01T08:32:53;13.00;99.90
18948;DHT22;9607;51.600;7.558;2022-10-01T08:35:20;13.00;99.90
18948;DHT22;9607;51.600;7.558;2022-10-01T08:37:47;13.10;99.90
18948;DHT22;9607;51.600;7.558;2022-10-01T08:40:14;13.20;99.90
18948;DHT22;9607;51.600;7.558;2022-10-01T08:42:50;13.30;99.90
18948;DHT22;9607;51.600;7.558;2022-10-01T08:45:24;13.50;99.90
18948;DHT22;9607;51.600;7.558;2022-10-01T08:47:57;13.60;99.90
18948;DHT22;9607;51.600;7.558;2022-10-01T08:50:40;13.70;99.90
18948;DHT22;9607;51.600;7.558;2022-10-01T08:53:14;13.80;99.90
18948;DHT22;9607;51.600;7.558;2022-10-01T08:55:43;13.80;99.90
18948;DHT22;9607;51.600;7.558;2022-10-01T08:58:20;14.00;99.90
18948;DHT22;9607;51.600;7.558;2022-10-01T09:00:49;14.10;99.90
18948;DHT22;9607;51.600;7.558;2022-10-01T09:03:17;14.20;99.90
18948;DHT22;9607;51.600;7.558;2022-10-01T09:05:54;14.30;99.90
18948;DHT22;9607;51.600;7.558;2022-10-01T09:08:30;14.40;99.90
18948;DHT22;9607;51.600;7.558;2022-10-01T09:11:22;14.60;99.90
18948;DHT22;9607;51.600;7.558;2022-10-01T09:14:14;14.90;99.90
18948;DHT22;9607;51.600;7.558;2022-10-01T09:16:49;15.10;99.90
18948;DHT22;9607;51.600;7.558;2022-10-01T09:19:32;15.30;99.90
18948;DHT22;9607;51.600;7.558;2022-10-01T09:22:10;15.50;99.90
18948;DHT22;9607;51.600;7.558;2022-10-01T09:24:43;15.60;99.90
18948;DHT22;9607;51.600;7.558;2022-10-01T09:27:13;15.50;99.90
18948;DHT22;9607;51.600;7.558;2022-10-01T09:29:46;15.50;99.90
18948;DHT22;9607;51.600;7.558;2022-10-01T09:32:16;15.60;99.90
18948;DHT22;9607;51.600;7.558;2022-10-01T09:34:46;15.60;99.90
18948;DHT22;9607;51.600;7.558;2022-10-01T09:37:20;15.60;99.90
18948;DHT22;9607;51.600;7.558;2022-10-01T09:39:58;15.60;99.90
18948;DHT22;9607;51.600;7.558;2022-10-01T09:42:29;15.60;99.90
18948;DHT22;9607;51.600;7.558;2022-10-01T09:44:57;15.70;99.90
18948;DHT22;9607;51.600;7.558;2022-10-01T09:47:25;15.80;99.90
18948;DHT22;9607;51.600;7.558;2022-10-01T09:49:53;15.90;99.90
18948;DHT22;9607;51.600;7.558;2022-10-01T09:52:25;16.10;99.90
18948;DHT22;9607;51.600;7.558;2022-10-01T09:54:55;16.10;99.90
18948;DHT22;9607;51.600;7.558;2022-10-01T09:57:25;16.10;99.90
18948;DHT22;9607;51.600;7.558;2022-10-01T10:00:04;16.10;99.90
18948;DHT22;9607;51.600;7.558;2022-10-01T10:02:39;16.00;99.90
18948;DHT22;9607;51.600;7.558;2022-10-01T10:05:12;15.90;99.90
18948;DHT22;9607;51.600;7.558;2022-10-01T10:07:43;15.90;99.90
18948;DHT22;9607;51.600;7.558;2022-10-01T10:10:17;15.80;99.90
18948;DHT22;9607;51.600;7.558;2022-10-01T10:12:45;15.80;99.90
18948;DHT22;9607;51.600;7.558;2022-10-01T10:15:17;15.80;99.90
18948;DHT22;9607;51.600;7.558;2022-10-01T10:17:48;15.80;99.90
18948;DHT22;9607;51.600;7.558;2022-10-01T10:20:24;15.80;99.90
18948;DHT22;9607;51.600;7.558;2022-10-01T10:22:51;15.80;99.90
18948;DHT22;9607;51.600;7.558;2022-10-01T10:25:21;15.80;99.90
18948;DHT22;9607;51.600;7.558;2022-10-01T10:27:51;15.80;99.90
18948;DHT22;9607;51.600;7.558;2022-10-01T10:30:22;15.90;99.90
18948;DHT22;9607;51.600;7.558;2022-10-01T10:32:51;15.90;99.90
18948;DHT22;9607;51.600;7.558;2022-10-01T10:35:23;15.90;99.90
18948;DHT22;9607;51.600;7.558;2022-10-01T10:37:52;15.80;99.90
18948;DHT22;9607;51.600;7.558;2022-10-01T10:40:22;15.80;99.90
18948;DHT22;9607;51.600;7.558;2022-10-01T10:42:51;15.80;99.90
18948;DHT22;9607;51.600;7.558;2022-10-01T10:45:24;15.90;99.90
18948;DHT22;9607;51.600;7.558;2022-10-01T10:47:54;16.00;99.90
18948;DHT22;9607;51.600;7.558;2022-10-01T10:50:32;16.10;99.90
18948;DHT22;9607;51.600;7.558;2022-10-01T10:53:10;16.20;99.90
18948;DHT22;9607;51.600;7.558;2022-10-01T10:55:52;16.40;99.90
18948;DHT22;9607;51.600;7.558;2022-10-01T10:58:24;16.60;99.90
18948;DHT22;9607;51.600;7.558;2022-10-01T11:00:54;16.80;99.90
18948;DHT22;9607;51.600;7.558;2022-10-01T11:03:25;17.00;99.90
18948;DHT22;9607;51.600;7.558;2022-10-01T11:05:53;17.10;99.90
18948;DHT22;9607;51.600;7.558;2022-10-01T11:08:23;17.10;99.90
18948;DHT22;9607;51.600;7.558;2022-10-01T11:11:02;17.00;99.90
18948;DHT22;9607;51.600;7.558;2022-10-01T11:13:46;16.90;99.90
18948;DHT22;9607;51.600;7.558;2022-10-01T11:16:32;16.70;99.90
18948;DHT22;9607;51.600;7.558;2022-10-01T11:19:10;16.50;99.90
18948;DHT22;9607;51.600;7.558;2022-10-01T11:21:53;16.40;99.90
18948;DHT22;9607;51.600;7.558;2022-10-01T11:24:51;16.30;99.90
18948;DHT22;9607;51.600;7.558;2022-10-01T11:27:26;16.30;99.90
18948;DHT22;9607;51.600;7.558;2022-10-01T11:30:03;16.30;99.90
18948;DHT22;9607;51.600;7.558;2022-10-01T11:32:37;16.50;99.90
18948;DHT22;9607;51.600;7.558;2022-10-01T11:35:15;16.70;99.90
18948;DHT22;9607;51.600;7.558;2022-10-01T11:37:56;17.00;99.90
18948;DHT22;9607;51.600;7.558;2022-10-01T11:40:31;17.30;99.90
18948;DHT22;9607;51.600;7.558;2022-10-01T11:43:02;17.60;99.90
18948;DHT22;9607;51.600;7.558;2022-10-01T11:45:33;17.80;99.90
18948;DHT22;9607;51.600;7.558;2022-10-01T11:48:08;17.90;99.90
18948;DHT22;9607;51.600;7.558;2022-10-01T11:50:41;18.00;99.90
18948;DHT22;9607;51.600;7.558;2022-10-01T11:53:11;18.10;99.90
18948;DHT22;9607;51.600;7.558;2022-10-01T11:55:44;17.90;99.90
18948;DHT22;9607;51.600;7.558;2022-10-01T11:58:38;17.80;99.90
18948;DHT22;9607;51.600;7.558;2022-10-01T12:01:23;17.60;99.90
18948;DHT22;9607;51.600;7.558;2022-10-01T12:04:03;17.40;99.90
18948;DHT22;9607;51.600;7.558;2022-10-01T12:06:35;17.10;99.90
18948;DHT22;9607;51.600;7.558;2022-10-01T12:09:08;16.80;99.90
18948;DHT22;9607;51.600;7.558;2022-10-01T12:11:42;16.60;99.90
18948;DHT22;9607;51.600;7.558;2022-10-01T12:14:15;16.40;99.90
18948;DHT22;9607;51.600;7.558;2022-10-01T12:16:46;16.30;99.90
18948;DHT22;9607;51.600;7.558;2022-10-01T12:19:22;16.20;99.90
18948;DHT22;9607;51.600;7.558;2022-10-01T12:21:52;16.10;99.90
18948;DHT22;9607;51.600;7.558;2022-10-01T12:24:23;15.70;99.90
18948;DHT22;9607;51.600;7.558;2022-10-01T12:27:00;15.10;99.90
18948;DHT22;9607;51.600;7.558;2022-10-01T12:29:37;14.50;99.90
18948;DHT22;9607;51.600;7.558;2022-10-01T12:32:13;13.80;99.90
18948;DHT22;9607;51.600;7.558;2022-10-01T12:34:50;13.20;99.90
18948;DHT22;9607;51.600;7.558;2022-10-01T12:37:29;12.60;99.90
18948;DHT22;9607;51.600;7.558;2022-10-01T12:40:07;12.20;99.90
18948;DHT22;9607;51.600;7.558;2022-10-01T12:42:56;11.90;99.90
18948;DHT22;9607;51.600;7.558;2022-10-01T12:45:31;11.70;99.90
18948;DHT22;9607;51.600;7.558;2022-10-01T12:48:06;11.60;99.90
18948;DHT22;9607;51.600;7.558;2022-10-01T12:50:47;11.70;99.90
18948;DHT22;9607;51.600;7.558;2022-10-01T12:53:27;11.80;99.90
18948;DHT22;9607;51.600;7.558;2022-10-01T12:56:02;11.90;99.90
18948;DHT22;9607;51.600;7.558;2022-10-01T12:58:50;12.10;99.90
18948;DHT22;9607;51.600;7.558;2022-10-01T13:01:32;12.20;99.90
18948;DHT22;9607;51.600;7.558;2022-10-01T13:04:33;12.30;99.90
18948;DHT22;9607;51.600;7.558;2022-10-01T13:07:19;12.50;99.90
18948;DHT22;9607;51.600;7.558;2022-10-01T13:09:56;12.70;99.90
18948;DHT22;9607;51.600;7.558;2022-10-01T13:12:39;12.80;99.90
18948;DHT22;9607;51.600;7.558;2022-10-01T13:15:11;12.90;99.90
18948;DHT22;9607;51.600;7.558;2022-10-01T13:17:43;13.00;99.90
18948;DHT22;9607;51.600;7.558;2022-10-01T13:20:20;13.00;99.90
18948;DHT22;9607;51.600;7.558;2022-10-01T13:22:54;13.10;99.90
18948;DHT22;9607;51.600;7.558;2022-10-01T13:25:30;13.10;99.90
18948;DHT22;9607;51.600;7.558;2022-10-01T13:28:04;13.10;99.90
18948;DHT22;9607;51.600;7.558;2022-10-01T13:30:48;13.20;99.90
18948;DHT22;9607;51.600;7.558;2022-10-01T13:33:22;13.20;99.90
18948;DHT22;9607;51.600;7.558;2022-10-01T13:35:55;13.20;99.90
18948;DHT22;9607;51.600;7.558;2022-10-01T13:38:29;13.20;99.90
18948;DHT22;9607;51.600;7.558;2022-10-01T13:40:58;13.30;99.90
18948;DHT22;9607;51.600;7.558;2022-10-01T13:43:26;13.50;99.90
18948;DHT22;9607;51.600;7.558;2022-10-01T13:45:55;13.60;99.90
18948;DHT22;9607;51.600;7.558;2022-10-01T13:48:31;13.70;99.90
18948;DHT22;9607;51.600;7.558;2022-10-01T13:51:02;13.90;99.90
18948;DHT22;9607;51.600;7.558;2022-10-01T13:53:33;14.00;99.90
18948;DHT22;9607;51.600;7.558;2022-10-01T13:56:02;14.10;99.90
18948;DHT22;9607;51.600;7.558;2022-10-01T13:58:36;14.10;99.90
18948;DHT22;9607;51.600;7.558;2022-10-01T14:01:06;14.10;99.90
18948;DHT22;9607;51.600;7.558;2022-10-01T14:03:38;14.20;99.90
18948;DHT22;9607;51.600;7.558;2022-10-01T14:06:14;14.20;99.90
18948;DHT22;9607;51.600;7.558;2022-10-01T14:08:46;14.30;99.90
18948;DHT22;9607;51.600;7.558;2022-10-01T14:11:16;14.20;99.90
18948;DHT22;9607;51.600;7.558;2022-10-01T14:14:10;14.30;99.90
18948;DHT22;9607;51.600;7.558;2022-10-01T14:16:56;14.30;99.90
18948;DHT22;9607;51.600;7.558;2022-10-01T14:19:25;14.40;99.90
18948;DHT22;9607;51.600;7.558;2022-10-01T14:22:01;14.50;99.90
18948;DHT22;9607;51.600;7.558;2022-10-01T14:24:45;14.60;99.90
18948;DHT22;9607;51.600;7.558;2022-10-01T14:27:20;14.70;99.90
18948;DHT22;9607;51.600;7.558;2022-10-01T14:29:58;14.80;99.90
18948;DHT22;9607;51.600;7.558;2022-10-01T14:32:36;14.90;99.90
18948;DHT22;9607;51.600;7.558;2022-10-01T14:35:23;15.00;99.90
18948;DHT22;9607;51.600;7.558;2022-10-01T14:37:57;15.20;99.90
18948;DHT22;9607;51.600;7.558;2022-10-01T14:40:34;15.30;99.90
18948;DHT22;9607;51.600;7.558;2022-10-01T14:43:12;15.40;99.90
18948;DHT22;9607;51.600;7.558;2022-10-01T14:45:52;15.40;99.90
18948;DHT22;9607;51.600;7.558;2022-10-01T14:48:20;15.60;99.90
18948;DHT22;9607;51.600;7.558;2022-10-01T14:50:50;15.60;99.90
18948;DHT22;9607;51.600;7.558;2022-10-01T14:53:18;15.60;99.90
18948;DHT22;9607;51.600;7.558;2022-10-01T14:55:47;15.60;99.90
18948;DHT22;9607;51.600;7.558;2022-10-01T14:58:20;15.60;99.90
18948;DHT22;9607;51.600;7.558;2022-10-01T15:00:50;15.50;99.90
18948;DHT22;9607;51.600;7.558;2022-10-01T15:03:18;15.60;99.90
18948;DHT22;9607;51.600;7.558;2022-10-01T15:05:46;15.50;99.90
18948;DHT22;9607;51.600;7.558;2022-10-01T15:08:16;15.50;99.90
18948;DHT22;9607;51.600;7.558;2022-10-01T15:10:48;15.50;99.90
18948;DHT22;9607;51.600;7.558;2022-10-01T15:13:19;15.50;99.90
18948;DHT22;9607;51.600;7.558;2022-10-01T15:15:47;15.50;99.90
18948;DHT22;9607;51.600;7.558;2022-10-01T15:18:14;15.50;99.90
18948;DHT22;9607;51.600;7.558;2022-10-01T15:20:52;15.60;99.90
18948;DHT22;9607;51.600;7.558;2022-10-01T15:23:21;15.70;99.90
18948;DHT22;9607;51.600;7.558;2022-10-01T15:25:49;15.90;99.90
18948;DHT22;9607;51.600;7.558;2022-10-01T15:28:25;16.20;99.90
18948;DHT22;9607;51.600;7.558;2022-10-01T15:30:53;16.20;99.90
18948;DHT22;9607;51.600;7.558;2022-10-01T15:33:24;16.20;99.90
18948;DHT22;9607;51.600;7.558;2022-10-01T15:35:55;16.30;99.90
18948;DHT22;9607;51.600;7.558;2022-10-01T15:38:22;16.60;99.90
18948;DHT22;9607;51.600;7.558;2022-10-01T15:40:52;16.60;99.90
18948;DHT22;9607;51.600;7.558;2022-10-01T15:43:33;16.50;99.90
18948;DHT22;9607;51.600;7.558;2022-10-01T15:46:15;16.40;99.90
18948;DHT22;9607;51.600;7.558;2022-10-01T15:48:43;16.30;99.90
18948;DHT22;9607;51.600;7.558;2022-10-01T15:51:22;16.30;99.90
18948;DHT22;9607;51.600;7.558;2022-10-01T15:53:51;16.30;99.90
18948;DHT22;9607;51.600;7.558;2022-10-01T15:56:21;16.60;99.90
18948;DHT22;9607;51.600;7.558;2022-10-01T15:58:52;16.80;99.90
18948;DHT22;9607;51.600;7.558;2022-10-01T16:01:22;16.70;99.90
18948;DHT22;9607;51.600;7.558;2022-10-01T16:03:53;16.80;99.90
18948;DHT22;9607;51.600;7.558;2022-10-01T16:06:24;17.00;99.90
18948;DHT22;9607;51.600;7.558;2022-10-01T16:09:00;17.20;99.90
18948;DHT22;9607;51.600;7.558;2022-10-01T16:11:31;17.50;99.90
18948;DHT22;9607;51.600;7.558;2022-10-01T16:14:36;17.90;99.90